createdAt,value
2019-05-03T00:01:37.297Z,2.13
2019-05-03T00:04:07.485Z,2.95
2019-05-03T00:06:37.581Z,3.87
2019-05-03T00:09:09.443Z,2.25
2019-05-03T00:11:39.539Z,2.53
2019-05-03T00:14:09.800Z,7.23
2019-05-03T00:16:41.709Z,1.77
2019-05-03T00:19:12.713Z,3.50
2019-05-03T00:21:42.883Z,1.70
2019-05-03T00:24:12.951Z,1.20
2019-05-03T00:26:42.969Z,1.30
2019-05-03T00:29:12.986Z,1.70
2019-05-03T00:31:42.994Z,1.00
2019-05-03T00:34:16.449Z,1.60
2019-05-03T00:36:52.507Z,1.13
2019-05-03T00:39:30.119Z,1.70
2019-05-03T00:42:00.288Z,1.47
2019-05-03T00:44:31.709Z,2.60
2019-05-03T00:47:02.353Z,4.13
2019-05-03T00:49:32.502Z,3.43
2019-05-03T00:52:03.837Z,5.87
2019-05-03T00:54:34.048Z,1.42
2019-05-03T00:57:04.090Z,1.63
2019-05-03T00:59:34.159Z,1.70
2019-05-03T01:02:04.321Z,1.80
2019-05-03T01:04:34.540Z,1.67
2019-05-03T01:07:04.766Z,1.70
2019-05-03T01:09:34.927Z,1.87
2019-05-03T01:12:05.228Z,1.85
2019-05-03T01:14:37.517Z,3.00
2019-05-03T01:17:07.605Z,1.53
2019-05-03T01:19:37.711Z,2.63
2019-05-03T01:22:07.653Z,1.87
2019-05-03T01:24:37.791Z,1.93
2019-05-03T01:27:07.906Z,2.00
2019-05-03T01:29:38.152Z,1.47
2019-05-03T01:32:08.404Z,2.10
2019-05-03T01:34:38.572Z,1.90
2019-05-03T01:37:08.659Z,2.53
2019-05-03T01:39:38.817Z,1.60
2019-05-03T01:42:08.841Z,2.62
2019-05-03T01:44:38.878Z,1.98
2019-05-03T01:47:12.120Z,1.97
2019-05-03T01:49:53.096Z,2.63
2019-05-03T01:52:27.816Z,1.40
2019-05-03T01:54:57.854Z,2.40
2019-05-03T01:57:28.041Z,2.10
2019-05-03T01:59:58.163Z,2.40
2019-05-03T02:02:52.965Z,2.03
2019-05-03T02:05:42.795Z,2.40
2019-05-03T02:08:14.256Z,2.57
2019-05-03T02:10:44.526Z,1.80
2019-05-03T02:13:14.650Z,2.70
2019-05-03T02:15:44.909Z,2.10
2019-05-03T02:18:15.297Z,3.97
2019-05-03T02:20:45.524Z,2.27
2019-05-03T02:23:15.645Z,2.70
2019-05-03T02:25:55.617Z,2.70
2019-05-03T02:28:17.744Z,4.53
2019-05-03T02:30:47.948Z,2.87
2019-05-03T02:33:18.105Z,2.37
2019-05-03T02:35:48.340Z,5.33
2019-05-03T02:38:18.378Z,2.53
2019-05-03T02:40:48.426Z,2.87
2019-05-03T02:43:26.387Z,3.37
2019-05-03T02:46:30.528Z,3.83
2019-05-03T02:49:09.507Z,4.80
2019-05-03T02:51:39.590Z,3.10
2019-05-03T02:54:09.794Z,4.08
2019-05-03T02:56:39.919Z,3.05
2019-05-03T02:59:10.035Z,3.83
2019-05-03T03:01:41.070Z,2.47
2019-05-03T03:04:11.515Z,3.17
2019-05-03T03:06:45.621Z,3.17
2019-05-03T03:09:19.057Z,3.97
2019-05-03T03:11:55.706Z,5.07
2019-05-03T03:14:29.458Z,4.70
2019-05-03T03:17:02.818Z,5.27
2019-05-03T03:19:37.675Z,4.30
2019-05-03T03:22:11.220Z,3.33
2019-05-03T03:24:45.797Z,4.77
2019-05-03T03:27:21.310Z,3.97
2019-05-03T03:30:01.940Z,4.80
2019-05-03T03:32:38.602Z,4.43
2019-05-03T03:35:21.840Z,5.37
2019-05-03T03:37:51.460Z,4.67
2019-05-03T03:40:25.459Z,5.70
2019-05-03T03:42:57.024Z,3.85
2019-05-03T03:45:27.949Z,4.87
2019-05-03T03:48:00.918Z,4.37
2019-05-03T03:50:35.902Z,4.87
2019-05-03T03:53:10.926Z,3.47
2019-05-03T03:55:45.899Z,6.33
2019-05-03T03:58:22.486Z,3.20
2019-05-03T04:00:49.368Z,3.00
2019-05-03T04:03:19.419Z,3.08
2019-05-03T04:05:49.606Z,3.40
2019-05-03T04:08:19.976Z,3.17
2019-05-03T04:10:50.060Z,3.60
2019-05-03T04:13:22.305Z,3.80
2019-05-03T04:16:05.775Z,4.70
2019-05-03T04:18:46.841Z,4.70
2019-05-03T04:21:16.988Z,5.80
2019-05-03T04:23:47.158Z,5.65
2019-05-03T04:26:17.348Z,9.33
2019-05-03T04:28:48.898Z,6.97
2019-05-03T04:31:19.255Z,7.23
2019-05-03T04:33:49.285Z,9.40
2019-05-03T04:36:19.458Z,14.47
2019-05-03T04:38:49.643Z,9.67
2019-05-03T04:41:19.730Z,10.33
2019-05-03T04:43:49.827Z,11.50
2019-05-03T04:46:22.609Z,13.30
2019-05-03T04:48:56.219Z,13.20
2019-05-03T04:51:26.351Z,13.23
2019-05-03T04:54:16.452Z,15.10
2019-05-03T04:56:46.686Z,18.83
2019-05-03T04:59:16.839Z,17.70
2019-05-03T05:01:46.987Z,23.50
2019-05-03T05:04:17.172Z,17.33
2019-05-03T05:06:47.257Z,19.53
2019-05-03T05:09:17.432Z,16.00
2019-05-03T05:11:47.472Z,20.90
2019-05-03T05:14:17.553Z,17.07
2019-05-03T05:16:47.596Z,16.30
2019-05-03T05:19:21.607Z,20.20
2019-05-03T05:21:56.010Z,23.20
2019-05-03T05:24:26.057Z,22.43
2019-05-03T05:27:05.969Z,23.10
2019-05-03T05:29:36.956Z,21.20
2019-05-03T05:32:07.690Z,16.30
2019-05-03T05:34:37.917Z,24.17
2019-05-03T05:37:08.007Z,24.70
2019-05-03T05:39:38.415Z,19.57
2019-05-03T05:42:08.494Z,27.63
2019-05-03T05:44:38.524Z,18.43
2019-05-03T05:47:42.582Z,23.70
2019-05-03T05:50:31.902Z,28.25
2019-05-03T05:53:02.324Z,22.50
2019-05-03T05:56:06.472Z,25.20
2019-05-03T05:58:40.351Z,23.93
2019-05-03T06:01:15.943Z,30.67
2019-05-03T06:03:45.948Z,26.50
2019-05-03T06:06:22.128Z,22.40
2019-05-03T06:09:01.721Z,31.57
2019-05-03T06:11:39.751Z,31.27
2019-05-03T06:14:24.477Z,33.77
2019-05-03T06:17:14.648Z,25.50
2019-05-03T06:20:11.682Z,35.60
2019-05-03T06:22:45.664Z,28.93
2019-05-03T06:25:27.422Z,23.70
2019-05-03T06:27:58.146Z,21.93
2019-05-03T06:30:49.458Z,34.92
2019-05-03T06:33:19.495Z,34.17
2019-05-03T06:35:49.541Z,38.07
2019-05-03T06:38:19.581Z,30.67
2019-05-03T06:40:50.580Z,32.70
2019-05-03T06:43:20.692Z,41.87
2019-05-03T06:45:50.714Z,34.83
2019-05-03T06:48:22.289Z,37.33
2019-05-03T06:50:52.479Z,38.10
2019-05-03T06:53:22.513Z,40.40
2019-05-03T06:55:52.614Z,35.58
2019-05-03T06:58:32.816Z,35.87
2019-05-03T07:01:12.112Z,37.13
2019-05-03T07:03:50.270Z,29.67
2019-05-03T07:06:39.481Z,31.37
2019-05-03T07:09:20.340Z,34.57
2019-05-03T07:11:50.505Z,31.37
2019-05-03T07:14:20.450Z,35.08
2019-05-03T07:16:50.505Z,30.80
2019-05-03T07:19:20.536Z,38.07
2019-05-03T07:21:50.571Z,41.63
2019-05-03T07:24:20.695Z,43.30
2019-05-03T07:26:50.708Z,45.43
2019-05-03T07:29:20.796Z,39.50
2019-05-03T07:31:50.915Z,41.23
2019-05-03T07:34:20.964Z,45.80
2019-05-03T07:36:50.934Z,38.80
2019-05-03T07:39:20.997Z,52.07
2019-05-03T07:41:50.972Z,50.20
2019-05-03T07:44:21.115Z,41.80
2019-05-03T07:46:51.153Z,44.23
2019-05-03T07:49:24.988Z,54.53
2019-05-03T07:51:55.941Z,47.60
2019-05-03T07:54:26.510Z,60.03
2019-05-03T07:57:01.845Z,45.10
2019-05-03T07:59:32.407Z,57.83
2019-05-03T08:02:05.372Z,48.80
2019-05-03T08:04:36.103Z,51.47
2019-05-03T08:07:19.303Z,47.48
2019-05-03T08:09:58.435Z,48.70
2019-05-03T08:12:29.666Z,59.93
2019-05-03T08:15:00.493Z,54.30
2019-05-03T08:17:50.180Z,51.07
2019-05-03T08:20:20.804Z,56.42
2019-05-03T08:22:51.413Z,48.83
2019-05-03T08:25:22.176Z,50.17
2019-05-03T08:27:54.850Z,45.47
2019-05-03T08:30:31.932Z,52.97
2019-05-03T08:33:11.915Z,48.97
2019-05-03T08:35:44.821Z,47.03
2019-05-03T08:38:18.018Z,53.78
2019-05-03T08:40:48.820Z,56.20
2019-05-03T08:43:19.436Z,44.57
2019-05-03T08:45:51.257Z,35.63
2019-05-03T08:48:24.814Z,46.77
2019-05-03T08:50:55.972Z,41.83
2019-05-03T08:53:27.619Z,43.90
2019-05-03T08:55:59.489Z,33.47
2019-05-03T08:58:31.252Z,41.23
2019-05-03T09:01:05.308Z,38.73
2019-05-03T09:03:37.931Z,40.03
2019-05-03T09:06:07.188Z,38.17
2019-05-03T09:08:37.601Z,37.93
2019-05-03T09:11:12.381Z,45.80
2019-05-03T09:14:10.589Z,39.50
2019-05-03T09:16:41.102Z,37.70
2019-05-03T09:19:12.032Z,40.23
2019-05-03T09:22:05.916Z,37.85
2019-05-03T09:24:36.111Z,32.50
2019-05-03T09:27:07.280Z,37.05
2019-05-03T09:29:43.175Z,39.83
2019-05-03T09:32:10.688Z,37.30
2019-05-03T09:34:41.737Z,48.02
2019-05-03T09:37:12.692Z,43.43
2019-05-03T09:39:44.634Z,44.40
2019-05-03T09:42:15.652Z,48.73
2019-05-03T09:44:46.271Z,30.88
2019-05-03T09:47:18.130Z,34.97
2019-05-03T09:49:49.022Z,26.47
2019-05-03T09:52:20.118Z,19.60
2019-05-03T09:54:54.651Z,21.77
2019-05-03T09:57:24.899Z,17.83
2019-05-03T09:59:59.735Z,21.57
2019-05-03T10:02:28.109Z,18.60
2019-05-03T10:04:58.779Z,18.90
2019-05-03T10:07:29.341Z,19.10
2019-05-03T10:10:00.159Z,19.70
2019-05-03T10:12:30.794Z,16.93
2019-05-03T10:15:01.178Z,14.47
2019-05-03T10:17:51.585Z,17.13
2019-05-03T10:20:41.292Z,13.73
2019-05-03T10:23:29.944Z,15.43
2019-05-03T10:26:00.348Z,9.80
2019-05-03T10:28:31.048Z,10.83
2019-05-03T10:31:04.953Z,10.73
2019-05-03T10:33:53.362Z,8.33
2019-05-03T10:36:24.986Z,6.73
2019-05-03T10:38:55.653Z,4.60
2019-05-03T10:41:26.287Z,4.67
2019-05-03T10:43:56.600Z,7.80
2019-05-03T10:46:27.747Z,4.43
2019-05-03T10:48:59.678Z,3.55
2019-05-03T10:51:32.800Z,4.70
2019-05-03T10:54:05.225Z,4.23
2019-05-03T10:56:52.680Z,6.00
2019-05-03T10:59:24.830Z,6.40
2019-05-03T11:02:05.756Z,5.37
2019-05-03T11:04:36.172Z,6.97
2019-05-03T11:07:06.651Z,6.20
2019-05-03T11:09:48.731Z,4.63
2019-05-03T11:12:09.243Z,5.13
2019-05-03T11:14:39.804Z,4.57
2019-05-03T11:17:29.226Z,6.47
2019-05-03T11:19:59.990Z,7.62
2019-05-03T11:22:30.830Z,6.30
2019-05-03T11:25:01.472Z,7.07
2019-05-03T11:27:39.161Z,8.87
2019-05-03T11:30:10.309Z,8.98
2019-05-03T11:32:52.246Z,11.55
2019-05-03T11:35:35.124Z,10.10
2019-05-03T11:38:15.058Z,9.70
2019-05-03T11:40:46.006Z,10.67
2019-05-03T11:43:18.588Z,13.83
2019-05-03T11:45:49.347Z,8.20
2019-05-03T11:48:20.265Z,5.20
2019-05-03T11:50:51.288Z,5.13
2019-05-03T11:53:25.189Z,5.93
2019-05-03T11:55:57.379Z,8.70
2019-05-03T11:58:30.954Z,5.00
2019-05-03T12:01:25.651Z,8.30
2019-05-03T12:04:04.974Z,3.80
2019-05-03T12:06:38.269Z,4.63
2019-05-03T12:09:09.597Z,2.97
2019-05-03T12:11:41.673Z,7.17
2019-05-03T12:14:15.433Z,3.87
2019-05-03T12:17:18.443Z,5.13
2019-05-03T12:19:41.571Z,5.87
2019-05-03T12:22:14.271Z,5.12
2019-05-03T12:24:49.390Z,7.63
2019-05-03T12:27:20.741Z,7.50
2019-05-03T12:29:52.464Z,8.60
2019-05-03T12:32:25.017Z,8.57
2019-05-03T12:34:56.121Z,10.20
2019-05-03T12:37:26.955Z,11.70
2019-05-03T12:39:57.731Z,16.63
2019-05-03T12:42:28.798Z,14.68
2019-05-03T12:45:00.080Z,18.00
2019-05-03T12:47:31.918Z,23.60
2019-05-03T12:50:05.112Z,23.20
2019-05-03T12:52:49.562Z,24.97
2019-05-03T12:55:09.967Z,26.80
2019-05-03T12:57:45.743Z,28.85
2019-05-03T13:00:33.892Z,29.00
2019-05-03T13:03:08.585Z,28.07
2019-05-03T13:05:41.186Z,27.70
2019-05-03T13:08:48.551Z,21.90
2019-05-03T13:11:20.322Z,33.20
2019-05-03T13:13:51.288Z,28.90
2019-05-03T13:16:22.017Z,24.67
2019-05-03T13:18:55.167Z,24.07
2019-05-03T13:21:27.049Z,22.60
2019-05-03T13:23:59.847Z,22.13
2019-05-03T13:26:30.358Z,18.57
2019-05-03T13:29:00.991Z,17.73
2019-05-03T13:31:34.537Z,19.47
2019-05-03T13:34:05.626Z,19.33
2019-05-03T13:36:36.200Z,18.80
2019-05-03T13:39:13.284Z,19.20
2019-05-03T13:41:41.912Z,19.77
2019-05-03T13:44:15.802Z,17.57
2019-05-03T13:46:46.307Z,17.33
2019-05-03T13:49:17.038Z,20.20
2019-05-03T13:51:48.222Z,20.10
2019-05-03T13:54:19.417Z,15.43
2019-05-03T13:56:50.377Z,18.07
2019-05-03T13:59:22.181Z,19.03
2019-05-03T14:01:54.651Z,17.70
2019-05-03T14:04:26.642Z,21.43
2019-05-03T14:06:59.114Z,18.00
2019-05-03T14:09:30.052Z,15.60
2019-05-03T14:12:00.796Z,15.40
2019-05-03T14:14:52.468Z,14.58
2019-05-03T14:17:25.268Z,11.47
2019-05-03T14:20:05.865Z,9.73
2019-05-03T14:22:38.177Z,8.43
2019-05-03T14:25:09.068Z,10.33
2019-05-03T14:27:39.732Z,10.13
2019-05-03T14:30:11.361Z,10.70
2019-05-03T14:32:41.871Z,11.00
2019-05-03T14:35:14.432Z,11.30
2019-05-03T14:37:45.916Z,10.30
2019-05-03T14:40:16.749Z,15.20
2019-05-03T14:42:47.184Z,11.50
2019-05-03T14:45:17.761Z,11.83
2019-05-03T14:47:48.306Z,14.57
2019-05-03T14:50:19.128Z,15.97
2019-05-03T14:52:49.586Z,14.10
2019-05-03T14:55:26.782Z,18.07
2019-05-03T14:58:17.469Z,15.60
2019-05-03T15:00:57.236Z,11.00
2019-05-03T15:03:27.871Z,15.77
2019-05-03T15:05:58.645Z,15.60
2019-05-03T15:08:29.173Z,13.13
2019-05-03T15:10:59.744Z,12.57
2019-05-03T15:13:30.372Z,17.73
2019-05-03T15:16:21.481Z,12.67
2019-05-03T15:19:05.434Z,12.13
2019-05-03T15:21:36.596Z,12.37
2019-05-03T15:24:08.557Z,10.23
2019-05-03T15:26:39.115Z,12.80
2019-05-03T15:29:09.759Z,12.33
2019-05-03T15:31:40.424Z,19.13
2019-05-03T15:34:10.980Z,12.87
2019-05-03T15:36:45.054Z,15.00
2019-05-03T15:39:15.529Z,13.53
2019-05-03T15:41:47.183Z,14.93
2019-05-03T15:44:25.339Z,11.43
2019-05-03T15:47:20.129Z,15.33
2019-05-03T15:49:51.467Z,17.97
2019-05-03T15:52:21.988Z,16.07
2019-05-03T15:54:52.590Z,11.77
2019-05-03T15:57:25.094Z,14.67
2019-05-03T15:59:56.921Z,14.53
2019-05-03T16:02:27.548Z,12.30
2019-05-03T16:04:58.808Z,15.60
2019-05-03T16:07:29.495Z,12.67
2019-05-03T16:09:59.965Z,15.77
2019-05-03T16:12:30.483Z,13.93
2019-05-03T16:15:01.123Z,15.93
2019-05-03T16:17:31.824Z,12.87
2019-05-03T16:20:02.306Z,13.87
2019-05-03T16:22:32.811Z,12.90
2019-05-03T16:25:04.998Z,14.33
2019-05-03T16:27:55.337Z,24.03
2019-05-03T16:30:45.449Z,12.70
2019-05-03T16:33:26.926Z,15.50
2019-05-03T16:35:49.745Z,13.90
2019-05-03T16:38:20.652Z,13.67
2019-05-03T16:40:50.959Z,15.60
2019-05-03T16:43:21.791Z,22.77
2019-05-03T16:45:52.428Z,17.37
2019-05-03T16:48:24.752Z,17.53
2019-05-03T16:50:55.386Z,13.20
2019-05-03T16:53:25.997Z,18.90
2019-05-03T16:55:57.198Z,14.15
2019-05-03T16:58:27.735Z,11.03
2019-05-03T17:00:58.238Z,17.10
2019-05-03T17:03:38.527Z,16.00
2019-05-03T17:06:23.695Z,11.37
2019-05-03T17:09:38.488Z,11.33
2019-05-03T17:12:16.391Z,11.87
2019-05-03T17:14:47.228Z,13.57
2019-05-03T17:17:19.067Z,13.40
2019-05-03T17:19:49.791Z,18.57
2019-05-03T17:22:21.827Z,16.07
2019-05-03T17:24:53.442Z,14.28
2019-05-03T17:27:25.002Z,17.00
2019-05-03T17:29:55.500Z,15.33
2019-05-03T17:32:26.356Z,17.43
2019-05-03T17:34:57.056Z,16.23
2019-05-03T17:37:27.700Z,15.00
2019-05-03T17:40:15.737Z,13.03
2019-05-03T17:43:20.378Z,18.50
2019-05-03T17:45:55.107Z,16.00
2019-05-03T17:48:25.829Z,14.43
2019-05-03T17:50:56.525Z,15.40
2019-05-03T17:53:55.194Z,15.80
2019-05-03T17:56:44.811Z,15.98
2019-05-03T17:59:24.454Z,14.60
2019-05-03T18:02:15.413Z,14.67
2019-05-03T18:05:16.938Z,15.07
2019-05-03T18:08:21.490Z,13.90
2019-05-03T18:11:15.410Z,17.73
2019-05-03T18:13:46.052Z,17.50
2019-05-03T18:16:16.693Z,19.70
2019-05-03T18:18:47.151Z,16.83
2019-05-03T18:21:17.678Z,21.37
2019-05-03T18:23:49.192Z,20.48
2019-05-03T18:26:21.354Z,15.57
2019-05-03T18:28:52.152Z,20.87
2019-05-03T18:31:24.877Z,18.50
2019-05-03T18:33:55.070Z,18.53
2019-05-03T18:36:26.941Z,20.00
2019-05-03T18:38:57.694Z,22.60
2019-05-03T18:41:29.325Z,20.25
2019-05-03T18:44:23.622Z,20.50
2019-05-03T18:47:05.409Z,18.75
2019-05-03T18:49:36.366Z,21.70
2019-05-03T18:52:07.513Z,19.97
2019-05-03T18:54:38.321Z,18.83
2019-05-03T18:57:09.224Z,19.03
2019-05-03T18:59:40.333Z,27.47
2019-05-03T19:02:11.798Z,24.90
2019-05-03T19:04:49.095Z,23.50
2019-05-03T19:07:37.531Z,22.50
2019-05-03T19:10:17.879Z,23.90
2019-05-03T19:13:06.453Z,25.70
2019-05-03T19:15:38.000Z,27.73
2019-05-03T19:18:27.391Z,25.30
2019-05-03T19:20:58.456Z,19.23
2019-05-03T19:23:30.414Z,25.00
2019-05-03T19:26:01.701Z,25.27
2019-05-03T19:28:35.429Z,27.47
2019-05-03T19:31:06.858Z,28.70
2019-05-03T19:33:38.318Z,26.87
2019-05-03T19:36:09.852Z,26.10
2019-05-03T19:38:40.445Z,28.10
2019-05-03T19:41:12.214Z,25.48
2019-05-03T19:43:44.561Z,27.10
2019-05-03T19:46:16.616Z,24.73
2019-05-03T19:48:47.517Z,32.50
2019-05-03T19:51:18.381Z,23.80
2019-05-03T19:53:55.107Z,26.93
2019-05-03T19:56:26.018Z,24.13
2019-05-03T19:59:01.618Z,24.37
2019-05-03T20:01:41.792Z,24.32
2019-05-03T20:04:57.538Z,26.87
2019-05-03T20:07:45.227Z,27.57
2019-05-03T20:10:18.114Z,22.90
2019-05-03T20:12:49.140Z,29.33
2019-05-03T20:15:20.517Z,23.50
2019-05-03T20:17:59.270Z,21.90
2019-05-03T20:20:27.382Z,20.90
2019-05-03T20:22:59.083Z,24.63
2019-05-03T20:25:30.371Z,25.07
2019-05-03T20:28:01.661Z,26.57
2019-05-03T20:30:34.679Z,24.57
2019-05-03T20:33:05.412Z,26.27
2019-05-03T20:35:36.741Z,29.00
2019-05-03T20:38:07.808Z,27.73
2019-05-03T20:40:38.701Z,33.42
2019-05-03T20:43:27.102Z,30.30
2019-05-03T20:46:06.229Z,33.33
2019-05-03T20:48:38.037Z,28.93
2019-05-03T20:51:09.382Z,26.87
2019-05-03T20:53:40.260Z,29.70
2019-05-03T20:56:15.438Z,25.27
2019-05-03T20:58:48.163Z,23.73
2019-05-03T21:01:19.087Z,25.00
2019-05-03T21:03:49.924Z,25.80
2019-05-03T21:06:34.834Z,23.98
2019-05-03T21:08:56.517Z,23.53
2019-05-03T21:11:46.445Z,26.60
2019-05-03T21:14:17.803Z,26.10
2019-05-03T21:17:10.705Z,26.87
2019-05-03T21:19:50.338Z,25.50
2019-05-03T21:22:24.947Z,27.05
2019-05-03T21:25:16.226Z,24.20
2019-05-03T21:27:49.776Z,33.60
2019-05-03T21:30:21.901Z,23.77
2019-05-03T21:32:54.861Z,25.53
2019-05-03T21:35:40.817Z,27.03
2019-05-03T21:37:59.619Z,22.53
2019-05-03T21:40:30.459Z,20.33
2019-05-03T21:43:01.347Z,19.32
2019-05-03T21:45:42.088Z,25.20
2019-05-03T21:48:18.029Z,28.10
2019-05-03T21:50:49.260Z,24.30
2019-05-03T21:53:20.197Z,26.27
2019-05-03T21:55:51.661Z,26.73
2019-05-03T21:58:25.036Z,24.52
2019-05-03T22:01:15.524Z,28.33
2019-05-03T22:03:47.179Z,26.40
2019-05-03T22:06:18.450Z,21.80
2019-05-03T22:08:48.617Z,25.23
2019-05-03T22:11:18.658Z,29.67
2019-05-03T22:13:50.334Z,28.10
2019-05-03T22:16:39.429Z,28.80
2019-05-03T22:19:09.449Z,27.00
2019-05-03T22:21:45.724Z,26.47
2019-05-03T22:24:28.700Z,27.40
2019-05-03T22:27:04.842Z,27.63
2019-05-03T22:29:35.784Z,32.60
2019-05-03T22:32:06.091Z,29.07
2019-05-03T22:34:36.245Z,27.73
2019-05-03T22:37:06.399Z,30.67
2019-05-03T22:39:36.486Z,29.33
2019-05-03T22:42:06.681Z,25.20
2019-05-03T22:44:36.780Z,27.50
2019-05-03T22:47:06.902Z,27.37
2019-05-03T22:49:37.298Z,30.20
2019-05-03T22:52:07.695Z,26.33
2019-05-03T22:54:37.647Z,24.33
2019-05-03T22:57:07.757Z,32.37
2019-05-03T22:59:37.772Z,28.83
2019-05-03T23:02:07.953Z,27.73
2019-05-03T23:04:38.075Z,36.93
2019-05-03T23:07:08.195Z,26.53
2019-05-03T23:09:38.190Z,27.40
2019-05-03T23:12:08.317Z,32.17
2019-05-03T23:14:38.471Z,27.17
2019-05-03T23:17:08.588Z,29.40
2019-05-03T23:19:40.809Z,27.23
2019-05-03T23:22:15.425Z,30.90
2019-05-03T23:24:45.400Z,32.10
2019-05-03T23:27:15.345Z,35.33
2019-05-03T23:29:45.558Z,30.47
2019-05-03T23:32:15.477Z,30.30
2019-05-03T23:34:46.435Z,30.80
2019-05-03T23:37:16.659Z,29.90
2019-05-03T23:39:46.810Z,38.70
2019-05-03T23:42:16.899Z,31.27
2019-05-03T23:44:47.072Z,36.67
2019-05-03T23:47:37.443Z,33.10
2019-05-03T23:50:11.338Z,29.20
2019-05-03T23:52:41.373Z,36.37
2019-05-03T23:55:28.370Z,27.27
2019-05-03T23:57:58.506Z,33.93
